createdAt,value
2023-04-02T00:01:22.966Z,14.73
2023-04-02T00:03:54.117Z,12.43
2023-04-02T00:06:33.160Z,14.90
2023-04-02T00:11:39.146Z,15.15
2023-04-02T00:14:23.799Z,17.13
2023-04-02T00:16:54.136Z,16.02
2023-04-02T00:19:53.020Z,16.92
2023-04-02T00:22:27.029Z,16.85
2023-04-02T00:24:57.148Z,17.08
2023-04-02T00:27:24.584Z,15.90
2023-04-02T00:29:57.033Z,17.23
2023-04-02T00:32:32.287Z,17.17
2023-04-02T00:35:00.712Z,16.40
2023-04-02T00:42:40.360Z,16.25
2023-04-02T00:45:30.194Z,14.80
2023-04-02T00:48:34.224Z,17.10
2023-04-02T00:51:22.514Z,18.42
2023-04-02T00:53:54.169Z,17.15
2023-04-02T00:56:31.296Z,15.77
2023-04-02T00:58:59.090Z,16.70
2023-04-02T01:01:37.949Z,14.52
2023-04-02T01:04:06.339Z,17.88
2023-04-02T01:09:43.060Z,17.15
2023-04-02T01:12:44.909Z,16.88
2023-04-02T01:15:36.207Z,16.58
2023-04-02T01:18:06.640Z,19.85
2023-04-02T01:21:02.739Z,14.50
2023-04-02T01:23:52.948Z,21.35
2023-04-02T01:26:56.584Z,12.38
2023-04-02T01:29:38.579Z,14.63
2023-04-02T01:32:18.592Z,13.65
2023-04-02T01:34:51.446Z,13.50
2023-04-02T01:37:36.942Z,18.55
2023-04-02T01:40:28.852Z,13.77
2023-04-02T01:43:39.318Z,12.18
2023-04-02T01:46:32.988Z,13.00
2023-04-02T01:49:21.569Z,13.73
2023-04-02T01:51:56.850Z,17.80
2023-04-02T01:54:29.072Z,14.50
2023-04-02T01:56:57.706Z,14.90
2023-04-02T01:59:26.531Z,15.40
2023-04-02T02:02:05.615Z,12.75
2023-04-02T02:04:36.029Z,13.80
2023-04-02T02:07:05.398Z,13.30
2023-04-02T02:09:36.678Z,16.73
2023-04-02T02:12:05.486Z,15.05
2023-04-02T02:14:33.669Z,13.32
2023-04-02T02:17:02.978Z,11.85
2023-04-02T02:19:42.204Z,13.70
2023-04-02T02:22:24.416Z,16.17
2023-04-02T02:24:52.148Z,17.58
2023-04-02T02:27:25.835Z,14.23
2023-04-02T02:30:19.457Z,11.52
2023-04-02T02:33:14.604Z,12.50
2023-04-02T02:35:49.903Z,13.60
2023-04-02T02:38:38.877Z,14.00
2023-04-02T02:41:24.838Z,12.98
2023-04-02T02:44:00.443Z,14.10
2023-04-02T02:46:30.580Z,9.68
2023-04-02T02:49:00.154Z,11.07
2023-04-02T02:52:08.344Z,12.05
2023-04-02T02:54:55.067Z,12.70
2023-04-02T03:00:00.134Z,14.07
2023-04-02T03:02:30.335Z,11.02
2023-04-02T03:04:59.486Z,12.23
2023-04-02T03:07:31.252Z,10.35
2023-04-02T03:10:10.773Z,12.07
2023-04-02T03:12:54.430Z,13.60
2023-04-02T03:15:59.136Z,10.25
2023-04-02T03:18:54.189Z,10.70
2023-04-02T03:21:46.300Z,12.35
2023-04-02T03:24:28.312Z,10.95
2023-04-02T03:27:39.596Z,10.90
2023-04-02T03:30:31.230Z,9.80
2023-04-02T03:33:08.648Z,8.70
2023-04-02T03:35:47.097Z,12.95
2023-04-02T03:38:27.682Z,9.55
2023-04-02T03:41:17.372Z,9.63
2023-04-02T03:43:52.679Z,9.13
2023-04-02T03:46:34.123Z,11.52
2023-04-02T03:49:24.288Z,11.32
2023-04-02T03:52:03.194Z,7.93
2023-04-02T03:54:31.487Z,7.20
2023-04-02T03:57:00.178Z,12.23
2023-04-02T03:59:52.650Z,8.77
2023-04-02T04:02:44.158Z,8.65
2023-04-02T04:05:30.861Z,8.02
2023-04-02T04:08:16.264Z,7.80
2023-04-02T04:10:44.050Z,8.73
2023-04-02T04:13:18.705Z,8.25
2023-04-02T04:15:45.913Z,9.50
2023-04-02T04:18:57.355Z,8.23
2023-04-02T04:21:46.386Z,8.65
2023-04-02T04:24:27.358Z,10.68
2023-04-02T04:27:05.035Z,9.18
2023-04-02T04:30:06.600Z,9.05
2023-04-02T04:32:50.262Z,6.65
2023-04-02T04:35:38.631Z,11.60
2023-04-02T04:38:18.448Z,10.00
2023-04-02T04:40:54.439Z,10.02
2023-04-02T04:43:58.741Z,9.15
2023-04-02T04:46:38.833Z,11.57
2023-04-02T04:49:54.284Z,12.60
2023-04-02T04:52:29.725Z,10.85
2023-04-02T04:54:58.488Z,9.85
2023-04-02T04:57:50.944Z,10.05
2023-04-02T05:01:19.564Z,10.85
2023-04-02T05:04:18.268Z,11.30
2023-04-02T05:07:00.662Z,9.77
2023-04-02T05:10:01.639Z,11.00
2023-04-02T05:13:15.863Z,10.70
2023-04-02T05:16:09.322Z,12.27
2023-04-02T05:18:47.617Z,12.85
2023-04-02T05:21:44.884Z,10.37
2023-04-02T05:24:46.871Z,9.98
2023-04-02T05:27:35.603Z,9.68
2023-04-02T05:30:38.623Z,8.95
2023-04-02T05:33:23.913Z,10.90
2023-04-02T05:36:03.756Z,9.73
2023-04-02T05:38:37.634Z,10.68
2023-04-02T05:41:37.076Z,11.73
2023-04-02T05:44:35.785Z,13.07
2023-04-02T05:47:24.521Z,12.18
2023-04-02T05:50:17.104Z,12.15
2023-04-02T05:52:59.650Z,10.02
2023-04-02T05:56:08.524Z,13.13
2023-04-02T05:58:51.538Z,10.15
2023-04-02T06:01:40.609Z,10.93
2023-04-02T06:04:50.142Z,8.57
2023-04-02T06:07:51.016Z,11.65
2023-04-02T06:10:25.025Z,10.15
2023-04-02T06:13:03.897Z,16.02
2023-04-02T06:15:38.195Z,11.75
2023-04-02T06:18:20.134Z,9.60
2023-04-02T06:20:48.867Z,11.38
2023-04-02T06:26:03.808Z,9.93
2023-04-02T06:28:43.332Z,14.65
2023-04-02T06:31:39.079Z,10.35
2023-04-02T06:34:18.294Z,10.43
2023-04-02T06:37:29.204Z,10.25
2023-04-02T06:40:30.650Z,16.30
2023-04-02T06:43:02.365Z,12.95
2023-04-02T06:45:55.385Z,10.43
2023-04-02T06:48:33.421Z,10.02
2023-04-02T06:51:12.064Z,10.50
2023-04-02T06:53:50.703Z,9.85
2023-04-02T06:56:46.916Z,9.73
2023-04-02T06:59:20.857Z,10.05
2023-04-02T07:04:22.254Z,10.82
2023-04-02T07:06:52.270Z,10.70
2023-04-02T07:09:21.161Z,10.05
2023-04-02T07:11:52.086Z,12.02
2023-04-02T07:14:20.176Z,12.85
2023-04-02T07:16:47.799Z,10.80
2023-04-02T07:19:21.991Z,11.77
2023-04-02T07:21:53.890Z,11.57
2023-04-02T07:24:22.587Z,10.60
2023-04-02T07:26:49.873Z,12.73
2023-04-02T07:29:17.782Z,10.10
2023-04-02T07:31:45.178Z,12.05
2023-04-02T07:34:12.584Z,11.93
2023-04-02T07:36:39.826Z,14.35
2023-04-02T07:39:07.192Z,11.55
2023-04-02T07:41:34.413Z,12.27
2023-04-02T07:44:01.606Z,12.93
2023-04-02T07:46:28.940Z,12.35
2023-04-02T07:48:56.219Z,9.82
2023-04-02T07:51:26.301Z,16.48
2023-04-02T07:53:56.424Z,9.60
2023-04-02T07:56:25.489Z,14.68
2023-04-02T07:58:56.042Z,13.63
2023-04-02T08:01:26.813Z,10.90
2023-04-02T08:03:55.864Z,10.10
2023-04-02T08:06:24.448Z,10.35
2023-04-02T08:08:52.507Z,9.93
2023-04-02T08:11:20.982Z,17.45
2023-04-02T08:13:48.290Z,11.07
2023-04-02T08:16:16.229Z,11.75
2023-04-02T08:18:43.411Z,13.70
2023-04-02T08:21:11.808Z,10.95
2023-04-02T08:26:07.178Z,13.23
2023-04-02T08:31:04.919Z,18.13
2023-04-02T08:33:32.698Z,13.60
2023-04-02T08:36:00.062Z,14.80
2023-04-02T08:38:27.327Z,12.70
2023-04-02T08:40:59.963Z,12.90
2023-04-02T08:44:28.228Z,13.68
2023-04-02T08:47:05.697Z,13.48
2023-04-02T08:50:01.220Z,25.70
2023-04-02T08:52:37.419Z,24.13
2023-04-02T08:55:37.377Z,21.60
2023-04-02T08:58:18.408Z,12.93
2023-04-02T09:00:49.068Z,12.13
2023-04-02T09:03:35.677Z,17.27
2023-04-02T09:06:04.652Z,13.63
2023-04-02T09:08:33.362Z,14.13
2023-04-02T09:11:25.181Z,13.50
2023-04-02T09:13:59.488Z,15.75
2023-04-02T09:16:51.371Z,15.95
2023-04-02T09:19:39.186Z,14.20
2023-04-02T09:22:22.499Z,13.70
2023-04-02T09:25:02.386Z,20.92
2023-04-02T09:27:34.141Z,11.15
2023-04-02T09:30:04.257Z,11.90
2023-04-02T09:32:31.784Z,12.02
2023-04-02T09:35:24.436Z,15.63
2023-04-02T09:38:07.760Z,12.57
2023-04-02T09:40:59.704Z,13.50
2023-04-02T09:43:35.704Z,14.73
2023-04-02T09:46:05.114Z,11.98
2023-04-02T09:49:01.312Z,14.82
2023-04-02T09:51:34.823Z,10.48
2023-04-02T09:54:04.992Z,10.50
2023-04-02T09:56:35.818Z,10.35
2023-04-02T09:59:07.434Z,8.90
2023-04-02T10:01:39.008Z,10.30
2023-04-02T10:04:29.857Z,9.23
2023-04-02T10:06:59.240Z,8.48
2023-04-02T10:09:33.701Z,16.20
2023-04-02T10:12:02.999Z,12.27
2023-04-02T10:14:43.526Z,11.23
2023-04-02T10:17:24.620Z,11.45
2023-04-02T10:20:17.391Z,14.95
2023-04-02T10:22:46.302Z,13.82
2023-04-02T10:25:21.455Z,17.98
2023-04-02T10:28:49.240Z,13.88
2023-04-02T10:31:31.876Z,12.25
2023-04-02T10:34:06.717Z,13.07
2023-04-02T10:36:58.042Z,8.43
2023-04-02T10:39:41.288Z,13.90
2023-04-02T10:42:47.030Z,13.82
2023-04-02T10:45:30.349Z,15.18
2023-04-02T10:48:04.167Z,11.05
2023-04-02T10:50:53.481Z,9.68
2023-04-02T10:53:26.773Z,8.13
2023-04-02T10:56:03.611Z,9.77
2023-04-02T10:58:35.544Z,9.63
2023-04-02T11:01:28.968Z,10.15
2023-04-02T11:04:03.303Z,12.55
2023-04-02T11:06:44.705Z,11.98
2023-04-02T11:09:20.409Z,10.70
2023-04-02T11:11:52.654Z,12.73
2023-04-02T11:14:25.610Z,6.88
2023-04-02T11:16:55.819Z,7.97
2023-04-02T11:19:32.128Z,8.93
2023-04-02T11:22:25.004Z,7.68
2023-04-02T11:24:55.706Z,9.40
2023-04-02T11:27:34.063Z,12.00
2023-04-02T11:30:16.472Z,8.88
2023-04-02T11:32:49.792Z,10.20
2023-04-02T11:35:38.315Z,8.93
2023-04-02T11:38:12.621Z,11.70
2023-04-02T11:40:59.354Z,10.88
2023-04-02T11:43:36.205Z,10.40
2023-04-02T11:46:34.891Z,12.95
2023-04-02T11:49:33.894Z,7.72
2023-04-02T11:52:11.503Z,12.00
2023-04-02T11:54:40.680Z,9.45
2023-04-02T11:57:30.915Z,14.60
2023-04-02T12:00:21.751Z,11.27
2023-04-02T12:03:42.224Z,9.68
2023-04-02T12:06:55.245Z,12.60
2023-04-02T12:09:29.154Z,9.75
2023-04-02T12:12:15.172Z,11.77
2023-04-02T12:14:51.229Z,16.92
2023-04-02T12:17:33.587Z,13.13
2023-04-02T12:20:10.590Z,13.85
2023-04-02T12:22:52.085Z,9.73
2023-04-02T12:25:23.147Z,13.23
2023-04-02T12:28:14.657Z,14.07
2023-04-02T12:30:42.297Z,11.20
2023-04-02T12:33:34.042Z,11.93
2023-04-02T12:36:05.092Z,10.25
2023-04-02T12:38:48.618Z,11.30
2023-04-02T12:41:30.591Z,14.13
2023-04-02T12:44:01.058Z,11.63
2023-04-02T12:46:35.276Z,10.55
2023-04-02T12:49:29.390Z,16.73
2023-04-02T12:51:58.717Z,20.05
2023-04-02T12:54:26.149Z,13.38
2023-04-02T12:56:53.843Z,15.20
2023-04-02T12:59:36.734Z,13.10
2023-04-02T13:02:22.036Z,16.27
2023-04-02T13:04:55.387Z,17.65
2023-04-02T13:07:28.703Z,12.15
2023-04-02T13:10:18.459Z,21.02
2023-04-02T13:12:46.291Z,13.82
2023-04-02T13:15:27.207Z,12.88
2023-04-02T13:18:13.740Z,13.90
2023-04-02T13:20:43.214Z,11.93
2023-04-02T13:23:29.125Z,14.98
2023-04-02T13:26:01.918Z,15.57
2023-04-02T13:28:29.395Z,19.23
2023-04-02T13:30:56.670Z,20.13
2023-04-02T13:33:23.951Z,23.20
2023-04-02T13:35:51.327Z,12.48
2023-04-02T13:38:18.706Z,17.50
2023-04-02T13:40:46.550Z,17.42
2023-04-02T13:43:20.060Z,18.05
2023-04-02T13:45:54.904Z,11.15
2023-04-02T13:48:26.321Z,11.30
2023-04-02T13:50:53.558Z,16.48
2023-04-02T13:53:29.777Z,18.15
2023-04-02T13:55:57.421Z,20.42
2023-04-02T13:58:24.766Z,11.73
2023-04-02T14:00:52.129Z,21.30
2023-04-02T14:03:22.581Z,13.30
2023-04-02T14:06:00.992Z,10.43
2023-04-02T14:09:02.229Z,10.35
2023-04-02T14:11:51.468Z,10.90
2023-04-02T14:14:33.741Z,12.25
2023-04-02T14:17:34.921Z,11.75
2023-04-02T14:20:35.238Z,8.57
2023-04-02T14:26:32.828Z,13.20
2023-04-02T14:30:00.941Z,13.13
2023-04-02T14:32:52.153Z,10.13
2023-04-02T14:35:47.260Z,24.42
2023-04-02T14:38:24.732Z,13.68
2023-04-02T14:41:24.921Z,11.32
2023-04-02T14:43:59.747Z,12.88
2023-04-02T14:46:28.882Z,15.85
2023-04-02T14:49:07.286Z,11.77
2023-04-02T14:51:38.603Z,21.48
2023-04-02T14:54:11.931Z,14.98
2023-04-02T14:56:51.216Z,12.60
2023-04-02T14:59:48.685Z,9.88
2023-04-02T15:02:36.039Z,11.65
2023-04-02T15:05:37.889Z,14.48
2023-04-02T15:08:24.991Z,10.48
2023-04-02T15:11:08.087Z,17.60
2023-04-02T15:13:45.615Z,12.18
2023-04-02T15:16:23.634Z,15.75
2023-04-02T15:18:57.443Z,11.52
2023-04-02T15:21:57.543Z,10.85
2023-04-02T15:24:56.488Z,13.93
2023-04-02T15:27:51.342Z,18.38
2023-04-02T15:30:35.373Z,12.35
2023-04-02T15:33:36.551Z,13.55
2023-04-02T15:36:37.079Z,15.02
2023-04-02T15:39:37.927Z,13.50
2023-04-02T15:42:28.081Z,16.60
2023-04-02T15:45:07.362Z,17.42
2023-04-02T15:47:49.725Z,18.55
2023-04-02T15:50:54.512Z,19.05
2023-04-02T15:53:58.094Z,16.23
2023-04-02T15:56:49.635Z,13.48
2023-04-02T15:59:54.416Z,18.48
2023-04-02T16:02:46.512Z,14.52
2023-04-02T16:05:41.113Z,20.92
2023-04-02T16:08:35.874Z,25.92
2023-04-02T16:11:03.148Z,24.65
2023-04-02T16:13:35.945Z,30.15
2023-04-02T16:16:36.302Z,24.48
2023-04-02T16:22:30.473Z,24.65
2023-04-02T16:25:23.090Z,23.58
2023-04-02T16:28:07.864Z,13.30
2023-04-02T16:30:56.668Z,14.70
2023-04-02T16:33:46.401Z,12.47
2023-04-02T16:36:58.760Z,11.63
2023-04-02T16:39:52.140Z,8.70
2023-04-02T16:43:03.527Z,10.02
2023-04-02T16:45:59.151Z,11.57
2023-04-02T16:48:52.034Z,9.48
2023-04-02T16:51:53.765Z,9.93
2023-04-02T16:54:50.815Z,12.30
2023-04-02T16:58:05.597Z,10.25
2023-04-02T17:00:44.365Z,13.27
2023-04-02T17:03:20.503Z,9.50
2023-04-02T17:05:59.806Z,12.10
2023-04-02T17:08:43.718Z,7.40
2023-04-02T17:11:26.978Z,9.80
2023-04-02T17:14:29.796Z,9.10
2023-04-02T17:17:02.469Z,9.65
2023-04-02T17:19:31.788Z,7.38
2023-04-02T17:22:05.229Z,9.00
2023-04-02T17:24:35.846Z,10.27
2023-04-02T17:27:49.555Z,10.07
2023-04-02T17:30:22.227Z,11.32
2023-04-02T17:32:49.636Z,11.15
2023-04-02T17:36:07.506Z,6.33
2023-04-02T17:39:35.810Z,13.80
2023-04-02T17:42:25.665Z,10.85
2023-04-02T17:45:17.560Z,7.45
2023-04-02T17:48:09.375Z,14.15
2023-04-02T17:50:55.477Z,6.88
2023-04-02T17:54:19.545Z,12.55
2023-04-02T17:57:08.476Z,15.20
2023-04-02T18:00:04.645Z,7.57
2023-04-02T18:03:04.024Z,6.65
2023-04-02T18:05:54.538Z,10.98
2023-04-02T18:08:40.238Z,11.73
2023-04-02T18:11:23.638Z,6.85
2023-04-02T18:14:04.607Z,11.93
2023-04-02T18:17:03.957Z,8.38
2023-04-02T18:20:17.838Z,6.85
2023-04-02T18:23:22.373Z,8.43
2023-04-02T18:26:21.449Z,12.93
2023-04-02T18:29:06.709Z,6.10
2023-04-02T18:32:17.918Z,10.57
2023-04-02T18:35:03.756Z,6.55
2023-04-02T18:38:31.589Z,11.55
2023-04-02T18:41:19.252Z,9.27
2023-04-02T18:44:18.321Z,6.80
2023-04-02T18:47:17.295Z,10.75
2023-04-02T18:49:52.924Z,6.40
2023-04-02T18:52:21.552Z,5.97
2023-04-02T18:55:21.369Z,4.05
2023-04-02T18:57:55.538Z,9.85
2023-04-02T19:00:39.261Z,8.32
2023-04-02T19:03:16.080Z,5.53
2023-04-02T19:06:07.734Z,7.13
2023-04-02T19:08:48.511Z,11.88
2023-04-02T19:11:28.831Z,6.47
2023-04-02T19:14:01.403Z,7.85
2023-04-02T19:17:05.091Z,7.18
2023-04-02T19:20:16.758Z,5.90
2023-04-02T19:23:34.425Z,8.73
2023-04-02T19:26:09.501Z,9.30
2023-04-02T19:28:48.378Z,12.90
2023-04-02T19:31:53.624Z,9.02
2023-04-02T19:35:14.548Z,8.40
2023-04-02T19:37:52.046Z,10.73
2023-04-02T19:40:29.133Z,5.75
2023-04-02T19:42:57.255Z,8.38
2023-04-02T19:45:39.814Z,7.95
2023-04-02T19:48:24.438Z,7.15
2023-04-02T19:50:51.825Z,9.65
2023-04-02T19:53:19.793Z,8.63
2023-04-02T19:55:47.210Z,6.10
2023-04-02T19:58:33.192Z,7.45
2023-04-02T20:01:01.578Z,5.38
2023-04-02T20:03:30.498Z,8.77
2023-04-02T20:05:59.902Z,8.13
2023-04-02T20:08:28.374Z,7.25
2023-04-02T20:13:23.485Z,5.95
2023-04-02T20:15:51.620Z,6.43
2023-04-02T20:18:20.631Z,7.38
2023-04-02T20:20:49.125Z,6.70
2023-04-02T20:23:17.463Z,6.28
2023-04-02T20:28:22.248Z,5.28
2023-04-02T20:30:50.504Z,5.60
2023-04-02T20:35:46.306Z,6.63
2023-04-02T20:38:13.574Z,5.13
2023-04-02T20:40:41.783Z,7.63
2023-04-02T20:43:10.725Z,4.38
2023-04-02T20:45:38.170Z,7.68
2023-04-02T20:48:05.945Z,7.67
2023-04-02T20:50:33.625Z,7.20
2023-04-02T20:53:02.890Z,7.45
2023-04-02T20:55:30.186Z,6.35
2023-04-02T20:57:57.439Z,5.63
2023-04-02T21:00:24.781Z,5.10
2023-04-02T21:02:52.048Z,7.90
2023-04-02T21:05:19.400Z,6.65
2023-04-02T21:07:48.758Z,8.88
2023-04-02T21:10:16.084Z,10.18
2023-04-02T21:12:43.473Z,7.15
2023-04-02T21:15:12.829Z,11.37
2023-04-02T21:17:40.093Z,9.65
2023-04-02T21:20:09.005Z,11.48
2023-04-02T21:22:36.997Z,9.98
2023-04-02T21:25:04.436Z,6.88
2023-04-02T21:27:31.659Z,9.67
2023-04-02T21:29:58.919Z,6.80
2023-04-02T21:32:26.193Z,7.68
2023-04-02T21:34:55.083Z,9.40
2023-04-02T21:37:22.279Z,11.45
2023-04-02T21:39:49.531Z,7.18
2023-04-02T21:42:17.057Z,9.60
2023-04-02T21:44:44.351Z,10.30
2023-04-02T21:47:11.683Z,5.88
2023-04-02T21:49:38.966Z,7.10
2023-04-02T21:52:06.329Z,6.50
2023-04-02T21:54:33.642Z,11.60
2023-04-02T21:57:00.973Z,8.32
2023-04-02T21:59:28.245Z,7.13
2023-04-02T22:01:55.628Z,10.32
2023-04-02T22:04:25.694Z,6.88
2023-04-02T22:06:53.950Z,9.30
2023-04-02T22:09:25.889Z,10.05
2023-04-02T22:12:00.203Z,6.05
2023-04-02T22:14:28.477Z,8.73
2023-04-02T22:16:56.294Z,7.35
2023-04-02T22:19:23.648Z,7.20
2023-04-02T22:21:51.740Z,8.83
2023-04-02T22:24:22.150Z,11.70
2023-04-02T22:26:50.062Z,6.90
2023-04-02T22:29:17.647Z,12.60
2023-04-02T22:31:45.120Z,11.70
2023-04-02T22:34:12.582Z,9.25
2023-04-02T22:36:40.226Z,9.68
2023-04-02T22:39:10.533Z,10.20
2023-04-02T22:41:38.534Z,8.55
2023-04-02T22:44:05.810Z,9.80
2023-04-02T22:46:33.237Z,13.05
2023-04-02T22:49:00.554Z,10.60
2023-04-02T22:51:28.176Z,11.30
2023-04-02T22:53:56.834Z,10.70
2023-04-02T22:56:32.380Z,11.50
2023-04-02T22:59:00.205Z,8.32
2023-04-02T23:01:31.878Z,6.18
2023-04-02T23:03:59.745Z,9.90
2023-04-02T23:06:28.094Z,8.07
2023-04-02T23:11:26.515Z,6.40
2023-04-02T23:13:56.866Z,9.05
2023-04-02T23:16:27.302Z,8.23
2023-04-02T23:18:55.692Z,7.15
2023-04-02T23:21:24.058Z,9.13
2023-04-02T23:23:51.731Z,7.57
2023-04-02T23:26:23.798Z,6.80
2023-04-02T23:28:51.685Z,8.73
2023-04-02T23:31:22.732Z,7.78
2023-04-02T23:33:52.263Z,5.45
2023-04-02T23:36:39.742Z,6.78
2023-04-02T23:39:11.426Z,6.00
2023-04-02T23:41:42.650Z,7.50
2023-04-02T23:44:10.497Z,9.68
2023-04-02T23:46:38.036Z,8.23
2023-04-02T23:49:05.496Z,7.20
2023-04-02T23:51:32.855Z,8.50
2023-04-02T23:54:00.489Z,8.02
2023-04-02T23:56:28.823Z,5.88
